Time;durP1;ratioP1;P1;durP2;ratioP2;P2;SDS_P1;SDS_P2;PMS_P1;PMS_P2;Temp;Humidity;BMP_temperature;BMP_pressure;BME280_temperature;BME280_humidity;BME280_pressure;Samples;Min_cycle;Max_cycle;Signal;HPM_P1;HPM_P2
2022/01/13 00:01:18;;;;;;;53.60;29.93;;;;;;;;;;5070869;28;20686;-72
2022/01/13 00:03:48;;;;;;;50.40;31.07;;;;;;;;;;5068466;28;20230;-72
2022/01/13 00:06:18;;;;;;;50.07;31.13;;;;;;;;;;5060942;28;20569;-72
2022/01/13 00:08:46;;;;;;;55.23;32.13;;;;;;;;;;5069196;28;20633;-72
2022/01/13 00:11:14;;;;;;;54.50;31.50;;;;;;;;;;5070544;28;20204;-72
2022/01/13 00:13:48;;;;;;;54.13;32.20;;;;;;;;;;5067646;28;20203;-73
2022/01/13 00:16:36;;;;;;;55.23;32.67;;;;;;;;;;5070728;28;20190;-72
2022/01/13 00:19:18;;;;;;;54.43;31.80;;;;;;;;;;5070062;28;20628;-72
2022/01/13 00:21:55;;;;;;;52.97;30.97;;;;;;;;;;5069464;28;20211;-72
2022/01/13 00:24:24;;;;;;;54.83;31.07;;;;;;;;;;5077425;28;20226;-71
2022/01/13 00:26:53;;;;;;;56.23;32.00;;;;;;;;;;5083889;28;20624;-72
2022/01/13 00:29:30;;;;;;;55.33;31.33;;;;;;;;;;5055860;28;20250;-72
2022/01/13 00:31:58;;;;;;;53.87;31.10;;;;;;;;;;5070711;27;20671;-72
2022/01/13 00:34:27;;;;;;;57.23;31.53;;;;;;;;;;5064593;28;20257;-71
2022/01/13 00:36:58;;;;;;;53.50;30.33;;;;;;;;;;5069601;28;20265;-72
2022/01/13 00:39:26;;;;;;;57.77;32.07;;;;;;;;;;5084145;28;20202;-72
2022/01/13 00:41:55;;;;;;;50.63;30.47;;;;;;;;;;5096348;28;20558;-73
2022/01/13 00:44:23;;;;;;;53.47;32.07;;;;;;;;;;5076622;28;20219;-73
2022/01/13 00:46:57;;;;;;;56.80;31.93;;;;;;;;;;5076076;28;20224;-73
2022/01/13 00:49:25;;;;;;;60.00;32.67;;;;;;;;;;5076034;28;20258;-72
2022/01/13 00:51:54;;;;;;;53.50;31.90;;;;;;;;;;5075706;28;20261;-72
2022/01/13 00:54:24;;;;;;;60.03;33.00;;;;;;;;;;5075223;28;20203;-72
2022/01/13 00:56:52;;;;;;;57.33;33.43;;;;;;;;;;5076088;28;20223;-73
2022/01/13 00:59:21;;;;;;;54.63;32.73;;;;;;;;;;5075682;28;20257;-72
2022/01/13 01:01:50;;;;;;;58.50;32.30;;;;;;;;;;5075800;28;20199;-72
2022/01/13 01:04:19;;;;;;;56.73;32.20;;;;;;;;;;5075359;28;20229;-72
2022/01/13 01:06:48;;;;;;;61.00;32.87;;;;;;;;;;5075615;28;20660;-72
2022/01/13 01:09:23;;;;;;;59.13;32.17;;;;;;;;;;5073327;28;20212;-72
2022/01/13 01:11:55;;;;;;;59.13;31.43;;;;;;;;;;5075560;28;20206;-73
2022/01/13 01:14:25;;;;;;;54.10;30.63;;;;;;;;;;5075598;28;20199;-73
2022/01/13 01:16:53;;;;;;;58.47;31.53;;;;;;;;;;5075570;28;20603;-71
2022/01/13 01:19:27;;;;;;;62.67;33.30;;;;;;;;;;5075374;28;20195;-72
2022/01/13 01:22:28;;;;;;;57.33;31.77;;;;;;;;;;5075522;28;20210;-71
2022/01/13 01:25:07;;;;;;;60.50;33.13;;;;;;;;;;5075003;28;20215;-71
2022/01/13 01:27:41;;;;;;;57.67;31.77;;;;;;;;;;5075256;28;20240;-72
2022/01/13 01:30:15;;;;;;;63.20;33.80;;;;;;;;;;5075267;28;20266;-72
2022/01/13 01:32:44;;;;;;;64.87;33.40;;;;;;;;;;5075357;28;20198;-72
2022/01/13 01:35:15;;;;;;;63.13;31.33;;;;;;;;;;5075190;28;20225;-72
2022/01/13 01:37:44;;;;;;;60.63;32.33;;;;;;;;;;5074979;28;20698;-71
2022/01/13 01:40:13;;;;;;;57.13;31.17;;;;;;;;;;5074652;28;20237;-71
2022/01/13 01:42:45;;;;;;;63.03;32.20;;;;;;;;;;5075151;28;20201;-73
2022/01/13 01:45:14;;;;;;;53.67;30.10;;;;;;;;;;5074719;28;20222;-73
2022/01/13 01:47:44;;;;;;;61.43;31.00;;;;;;;;;;5072867;28;20585;-71
2022/01/13 01:50:18;;;;;;;62.63;31.30;;;;;;;;;;5073132;28;20655;-72
2022/01/13 01:52:47;;;;;;;58.20;30.67;;;;;;;;;;5074588;28;20203;-72
2022/01/13 01:55:16;;;;;;;54.63;29.33;;;;;;;;;;5074562;28;20200;-73
2022/01/13 01:57:47;;;;;;;62.47;30.07;;;;;;;;;;5074751;28;20690;-73
2022/01/13 02:00:17;;;;;;;61.70;30.60;;;;;;;;;;5074348;28;20668;-72
2022/01/13 02:02:46;;;;;;;51.57;28.60;;;;;;;;;;5074633;28;20212;-72
2022/01/13 02:05:14;;;;;;;54.43;29.20;;;;;;;;;;5074500;28;20238;-72
2022/01/13 02:07:43;;;;;;;55.80;29.47;;;;;;;;;;5073779;28;20216;-73
2022/01/13 02:10:12;;;;;;;60.20;29.40;;;;;;;;;;5074305;28;20245;-71
2022/01/13 02:12:43;;;;;;;54.77;28.97;;;;;;;;;;5074497;28;20203;-72
2022/01/13 02:18:01;;;;;;;60.17;30.33;;;;;;;;;;5074438;28;20235;-73
2022/01/13 02:20:44;;;;;;;63.53;29.10;;;;;;;;;;5073382;28;20253;-71
2022/01/13 02:23:13;;;;;;;63.57;31.83;;;;;;;;;;5074088;28;20207;-72
2022/01/13 02:25:41;;;;;;;59.07;30.77;;;;;;;;;;5073651;28;20741;-72
2022/01/13 02:28:09;;;;;;;64.00;30.13;;;;;;;;;;5074234;28;20699;-72
2022/01/13 02:30:38;;;;;;;61.03;31.00;;;;;;;;;;5073783;28;20724;-72
2022/01/13 02:33:06;;;;;;;63.63;31.50;;;;;;;;;;5073956;28;20210;-73
2022/01/13 02:35:36;;;;;;;66.13;31.47;;;;;;;;;;5074065;28;20253;-72
2022/01/13 02:38:11;;;;;;;68.47;31.60;;;;;;;;;;5073573;28;20683;-73
2022/01/13 02:40:40;;;;;;;64.60;30.83;;;;;;;;;;5073462;28;20251;-72
2022/01/13 02:43:08;;;;;;;63.70;31.00;;;;;;;;;;5073893;28;20210;-73
2022/01/13 02:45:51;;;;;;;65.97;30.90;;;;;;;;;;5073268;28;20311;-72
2022/01/13 02:48:30;;;;;;;68.50;31.53;;;;;;;;;;5073000;28;20281;-73
2022/01/13 02:50:59;;;;;;;67.57;32.10;;;;;;;;;;5073747;28;20253;-73
2022/01/13 02:53:29;;;;;;;67.90;32.13;;;;;;;;;;5073179;28;20229;-72
2022/01/13 02:56:02;;;;;;;73.27;32.43;;;;;;;;;;5073560;28;20199;-72
2022/01/13 02:58:31;;;;;;;75.40;32.10;;;;;;;;;;5073362;28;20232;-72
2022/01/13 03:00:59;;;;;;;65.73;30.90;;;;;;;;;;5072521;28;20194;-72
2022/01/13 03:03:29;;;;;;;71.93;31.17;;;;;;;;;;5073302;28;20658;-73
2022/01/13 03:05:57;;;;;;;75.73;32.70;;;;;;;;;;5073093;28;20219;-72
2022/01/13 03:08:25;;;;;;;75.33;32.47;;;;;;;;;;5072880;28;20689;-72
2022/01/13 03:10:56;;;;;;;79.00;33.93;;;;;;;;;;5073109;28;20242;-72
2022/01/13 03:13:28;;;;;;;76.33;33.20;;;;;;;;;;5073049;28;20198;-73
2022/01/13 03:15:56;;;;;;;76.17;32.33;;;;;;;;;;5072977;28;20704;-71
2022/01/13 03:18:24;;;;;;;75.77;33.00;;;;;;;;;;5073168;28;20223;-72
2022/01/13 03:20:53;;;;;;;72.27;31.80;;;;;;;;;;5073237;28;20609;-72
2022/01/13 03:23:21;;;;;;;79.67;33.40;;;;;;;;;;5073036;28;20205;-72
2022/01/13 03:25:50;;;;;;;73.60;32.20;;;;;;;;;;5072753;28;20214;-72
2022/01/13 03:28:29;;;;;;;80.43;32.70;;;;;;;;;;5073083;28;20226;-71
2022/01/13 03:30:59;;;;;;;84.57;33.13;;;;;;;;;;5072856;28;20616;-72
2022/01/13 03:33:28;;;;;;;79.47;33.33;;;;;;;;;;5073038;28;20286;-72
2022/01/13 03:35:57;;;;;;;74.90;29.93;;;;;;;;;;5073052;28;20203;-72
2022/01/13 03:38:25;;;;;;;74.50;30.50;;;;;;;;;;5072327;28;20222;-72
2022/01/13 03:40:54;;;;;;;82.73;31.47;;;;;;;;;;5072626;28;20202;-71
2022/01/13 03:43:24;;;;;;;72.23;30.43;;;;;;;;;;5072924;28;20272;-73
2022/01/13 03:45:52;;;;;;;73.93;31.97;;;;;;;;;;5072728;28;20238;-72
2022/01/13 03:48:21;;;;;;;68.23;28.27;;;;;;;;;;5072528;28;20630;-73
2022/01/13 03:50:49;;;;;;;69.50;30.47;;;;;;;;;;5072889;28;20210;-74
2022/01/13 03:53:48;;;;;;;60.30;28.43;;;;;;;;;;5072501;28;20246;-72
2022/01/13 03:56:37;;;;;;;70.80;30.33;;;;;;;;;;5072280;28;20194;-74
2022/01/13 03:59:26;;;;;;;69.50;30.43;;;;;;;;;;5061366;28;20199;-71
2022/01/13 04:02:01;;;;;;;73.27;32.00;;;;;;;;;;5072769;28;20196;-73
2022/01/13 04:04:30;;;;;;;72.37;30.70;;;;;;;;;;5072685;28;20627;-72
2022/01/13 04:07:06;;;;;;;82.90;32.43;;;;;;;;;;5072584;28;20218;-73
2022/01/13 04:10:03;;;;;;;77.07;31.87;;;;;;;;;;5072044;28;20199;-73
2022/01/13 04:12:31;;;;;;;76.43;33.53;;;;;;;;;;5073976;28;20241;-73
2022/01/13 04:15:03;;;;;;;81.30;32.23;;;;;;;;;;5076617;28;20206;-73
2022/01/13 04:17:31;;;;;;;74.03;32.10;;;;;;;;;;5076551;28;20227;-72
2022/01/13 04:19:59;;;;;;;81.80;32.63;;;;;;;;;;5076405;28;20196;-73
2022/01/13 04:22:28;;;;;;;81.67;33.40;;;;;;;;;;5075980;28;20197;-74
2022/01/13 04:24:57;;;;;;;81.63;33.27;;;;;;;;;;5073534;28;20701;-73
2022/01/13 04:27:28;;;;;;;73.73;31.80;;;;;;;;;;5076033;28;20230;-73
2022/01/13 04:30:22;;;;;;;91.23;35.37;;;;;;;;;;5076620;28;20241;-73
2022/01/13 04:32:51;;;;;;;81.80;32.83;;;;;;;;;;5075165;28;20201;-72
2022/01/13 04:35:19;;;;;;;87.83;33.83;;;;;;;;;;5060612;28;20281;-73
2022/01/13 04:37:47;;;;;;;83.47;35.33;;;;;;;;;;5066631;28;20276;-72
2022/01/13 04:40:16;;;;;;;86.00;34.77;;;;;;;;;;5076054;28;20265;-73
2022/01/13 04:42:45;;;;;;;94.83;36.07;;;;;;;;;;5075749;28;20249;-73
2022/01/13 04:45:14;;;;;;;84.80;34.63;;;;;;;;;;5075642;28;20280;-73
2022/01/13 04:47:42;;;;;;;84.53;34.07;;;;;;;;;;5075783;28;20619;-72
2022/01/13 04:50:12;;;;;;;92.43;36.27;;;;;;;;;;5075783;28;20215;-73
2022/01/13 04:52:41;;;;;;;86.93;34.87;;;;;;;;;;5075880;28;20207;-72
2022/01/13 04:55:12;;;;;;;89.90;34.57;;;;;;;;;;5075261;28;20195;-73
2022/01/13 04:57:40;;;;;;;90.33;33.90;;;;;;;;;;5060208;28;20212;-72
2022/01/13 05:00:10;;;;;;;87.00;34.73;;;;;;;;;;5075338;28;20561;-72
2022/01/13 05:02:38;;;;;;;94.03;34.90;;;;;;;;;;5075739;28;20203;-72
2022/01/13 05:05:07;;;;;;;88.20;33.77;;;;;;;;;;5074958;28;20248;-73
2022/01/13 05:07:37;;;;;;;85.90;34.10;;;;;;;;;;5075484;28;20215;-73
2022/01/13 05:10:06;;;;;;;88.77;34.43;;;;;;;;;;5073320;28;20270;-73
2022/01/13 05:12:39;;;;;;;81.97;33.27;;;;;;;;;;5075554;28;20195;-73
2022/01/13 05:15:09;;;;;;;88.60;35.03;;;;;;;;;;5075238;28;20201;-73
2022/01/13 05:20:46;;;;;;;83.60;32.33;;;;;;;;;;5075284;28;20199;-72
2022/01/13 05:23:16;;;;;;;79.40;32.47;;;;;;;;;;5074851;28;20243;-72
2022/01/13 05:25:45;;;;;;;76.90;31.40;;;;;;;;;;5075399;28;20227;-71
2022/01/13 05:28:13;;;;;;;84.47;33.90;;;;;;;;;;5075281;28;20231;-72
2022/01/13 05:30:42;;;;;;;86.10;33.63;;;;;;;;;;5075032;28;20245;-70
2022/01/13 05:33:11;;;;;;;72.53;32.50;;;;;;;;;;5074838;28;20647;-72
2022/01/13 05:35:40;;;;;;;89.00;33.57;;;;;;;;;;5075194;28;20256;-73
2022/01/13 05:38:09;;;;;;;75.83;32.07;;;;;;;;;;5074860;28;20234;-71
2022/01/13 05:40:39;;;;;;;82.97;32.63;;;;;;;;;;5074844;28;20258;-72
2022/01/13 05:43:08;;;;;;;79.73;31.90;;;;;;;;;;5074633;28;20543;-73
2022/01/13 05:45:39;;;;;;;76.97;32.53;;;;;;;;;;5074580;28;20678;-73
2022/01/13 05:48:08;;;;;;;80.60;31.17;;;;;;;;;;5074634;28;20219;-73
2022/01/13 05:50:36;;;;;;;79.17;33.07;;;;;;;;;;5073355;28;20204;-72
2022/01/13 05:53:05;;;;;;;73.63;29.37;;;;;;;;;;5073575;28;20201;-73
2022/01/13 05:55:34;;;;;;;72.30;29.30;;;;;;;;;;5059824;28;20196;-73
2022/01/13 05:58:05;;;;;;;67.93;29.73;;;;;;;;;;5070405;28;20263;-71
2022/01/13 06:00:33;;;;;;;72.33;30.20;;;;;;;;;;5070764;28;20265;-73
2022/01/13 06:03:02;;;;;;;76.97;30.97;;;;;;;;;;5074659;28;20203;-72
2022/01/13 06:05:30;;;;;;;70.57;30.40;;;;;;;;;;5069625;28;20209;-73
2022/01/13 06:07:59;;;;;;;68.77;30.90;;;;;;;;;;5070864;28;20219;-73
2022/01/13 06:10:27;;;;;;;83.07;32.40;;;;;;;;;;5071505;28;20198;-73
2022/01/13 06:12:56;;;;;;;68.57;30.50;;;;;;;;;;5072734;28;20651;-72
2022/01/13 06:15:26;;;;;;;77.03;30.43;;;;;;;;;;5059873;28;20205;-72
2022/01/13 06:17:56;;;;;;;82.40;32.77;;;;;;;;;;5061990;28;20824;-71
2022/01/13 06:20:24;;;;;;;83.23;33.00;;;;;;;;;;5065906;28;20234;-73
2022/01/13 06:22:53;;;;;;;83.53;34.23;;;;;;;;;;5057998;28;20206;-72
2022/01/13 06:25:22;;;;;;;85.93;34.67;;;;;;;;;;5067304;28;20265;-72
2022/01/13 06:27:51;;;;;;;85.33;33.67;;;;;;;;;;5074056;28;20277;-72
2022/01/13 06:30:41;;;;;;;83.40;33.67;;;;;;;;;;5084242;28;20568;-72
2022/01/13 06:33:09;;;;;;;86.53;34.33;;;;;;;;;;5073690;28;20205;-72
2022/01/13 06:35:38;;;;;;;78.00;32.70;;;;;;;;;;5064524;28;20254;-72
2022/01/13 06:38:06;;;;;;;83.83;33.57;;;;;;;;;;5068911;28;20234;-72
2022/01/13 06:40:35;;;;;;;92.07;34.43;;;;;;;;;;5060348;28;20200;-73
2022/01/13 06:43:03;;;;;;;86.70;34.67;;;;;;;;;;5082208;28;20729;-72
2022/01/13 06:45:32;;;;;;;89.13;34.70;;;;;;;;;;5076295;28;20207;-72
2022/01/13 06:48:02;;;;;;;91.53;35.03;;;;;;;;;;5093792;28;20287;-72
2022/01/13 06:50:30;;;;;;;89.83;35.40;;;;;;;;;;5087855;28;20612;-72
2022/01/13 06:52:59;;;;;;;91.07;35.60;;;;;;;;;;5073342;28;20249;-73
2022/01/13 06:55:27;;;;;;;88.97;34.77;;;;;;;;;;5073695;28;20219;-72
2022/01/13 06:57:56;;;;;;;84.33;33.63;;;;;;;;;;5093431;28;20624;-71
2022/01/13 07:00:24;;;;;;;89.70;35.90;;;;;;;;;;5089981;28;20199;-71
2022/01/13 07:02:55;;;;;;;87.63;35.53;;;;;;;;;;5068714;28;20207;-71
2022/01/13 07:05:25;;;;;;;92.17;34.63;;;;;;;;;;5088449;28;20291;-72
2022/01/13 07:07:54;;;;;;;99.10;36.77;;;;;;;;;;5073340;28;20641;-72
2022/01/13 07:10:22;;;;;;;90.93;35.63;;;;;;;;;;5087604;28;20198;-73
2022/01/13 07:12:51;;;;;;;91.47;33.67;;;;;;;;;;5073194;28;20265;-72
2022/01/13 07:15:19;;;;;;;91.83;35.53;;;;;;;;;;5089803;28;20206;-72
2022/01/13 07:17:48;;;;;;;97.60;35.40;;;;;;;;;;5093388;28;20629;-72
2022/01/13 07:20:16;;;;;;;90.70;34.33;;;;;;;;;;5076246;28;20210;-72
2022/01/13 07:22:46;;;;;;;97.67;34.80;;;;;;;;;;5072798;28;20661;-72
2022/01/13 07:25:15;;;;;;;95.27;37.00;;;;;;;;;;5072757;28;20202;-72
2022/01/13 07:27:44;;;;;;;98.30;36.20;;;;;;;;;;5072711;28;20261;-73
2022/01/13 07:30:13;;;;;;;94.50;34.20;;;;;;;;;;5072964;28;20204;-72
2022/01/13 07:32:41;;;;;;;90.77;33.50;;;;;;;;;;5073121;28;20594;-72
2022/01/13 07:35:10;;;;;;;94.93;34.97;;;;;;;;;;5073145;28;20721;-72
2022/01/13 07:37:40;;;;;;;94.30;32.60;;;;;;;;;;5073189;28;20227;-71
2022/01/13 07:40:13;;;;;;;91.70;33.53;;;;;;;;;;5072828;28;20254;-73
2022/01/13 07:42:42;;;;;;;86.27;32.33;;;;;;;;;;5073079;28;20667;-72
2022/01/13 07:45:11;;;;;;;87.10;31.67;;;;;;;;;;5073258;28;20211;-72
2022/01/13 07:47:39;;;;;;;88.33;33.27;;;;;;;;;;5076456;28;20297;-72
2022/01/13 07:50:09;;;;;;;90.27;32.20;;;;;;;;;;5076786;28;20618;-72
2022/01/13 07:52:37;;;;;;;90.33;32.73;;;;;;;;;;5077048;28;20216;-73
2022/01/13 07:55:07;;;;;;;90.87;33.70;;;;;;;;;;5086065;28;20200;-72
2022/01/13 07:57:37;;;;;;;86.70;33.10;;;;;;;;;;5075644;28;20649;-72
2022/01/13 08:00:06;;;;;;;93.37;33.37;;;;;;;;;;5071840;28;20265;-72
2022/01/13 08:02:35;;;;;;;96.13;33.40;;;;;;;;;;5075889;28;20211;-71
2022/01/13 08:05:04;;;;;;;108.63;35.50;;;;;;;;;;5097126;28;20206;-73
2022/01/13 08:07:32;;;;;;;101.40;35.27;;;;;;;;;;5071458;28;20300;-72
2022/01/13 08:10:00;;;;;;;107.20;36.63;;;;;;;;;;5078836;28;20206;-73
2022/01/13 08:12:29;;;;;;;108.47;36.50;;;;;;;;;;5096902;28;20204;-72
2022/01/13 08:14:58;;;;;;;113.80;37.70;;;;;;;;;;5077675;28;20207;-72
2022/01/13 08:20:13;;;;;;;110.83;38.03;;;;;;;;;;5097017;28;20193;-72
2022/01/13 08:22:41;;;;;;;111.77;37.23;;;;;;;;;;5096789;28;20638;-72
2022/01/13 08:25:10;;;;;;;108.13;37.20;;;;;;;;;;5088434;28;20214;-73
2022/01/13 08:27:38;;;;;;;104.27;37.00;;;;;;;;;;5079083;28;20622;-73
2022/01/13 08:30:09;;;;;;;110.73;37.63;;;;;;;;;;5076103;28;20675;-71
2022/01/13 08:32:38;;;;;;;112.60;38.53;;;;;;;;;;5076319;28;20214;-72
2022/01/13 08:35:07;;;;;;;106.27;36.00;;;;;;;;;;5076407;28;20268;-71
2022/01/13 08:37:35;;;;;;;101.47;35.57;;;;;;;;;;5075856;28;20211;-73
2022/01/13 08:40:05;;;;;;;94.27;35.17;;;;;;;;;;5075833;28;20210;-72
2022/01/13 08:42:34;;;;;;;107.20;37.63;;;;;;;;;;5091287;28;20205;-73
2022/01/13 08:45:04;;;;;;;95.93;35.40;;;;;;;;;;5088603;28;20220;-72
2022/01/13 08:47:34;;;;;;;108.57;38.37;;;;;;;;;;5076142;28;20220;-72
2022/01/13 08:50:02;;;;;;;102.60;37.37;;;;;;;;;;5076023;28;20199;-72
2022/01/13 08:52:33;;;;;;;101.97;37.20;;;;;;;;;;5076537;28;20203;-71
2022/01/13 08:55:02;;;;;;;103.87;37.53;;;;;;;;;;5078398;28;20203;-73
2022/01/13 08:57:30;;;;;;;100.97;36.33;;;;;;;;;;5075508;28;20275;-72
2022/01/13 08:59:59;;;;;;;105.73;36.60;;;;;;;;;;5082299;28;20252;-72
2022/01/13 09:02:30;;;;;;;101.13;37.63;;;;;;;;;;5096014;28;20241;-72
2022/01/13 09:05:00;;;;;;;98.97;35.37;;;;;;;;;;5089393;28;20201;-72
2022/01/13 09:07:28;;;;;;;94.40;35.13;;;;;;;;;;5055760;28;20235;-72
2022/01/13 09:10:04;;;;;;;102.37;35.83;;;;;;;;;;5080090;28;20197;-72
2022/01/13 09:12:33;;;;;;;105.80;36.83;;;;;;;;;;5095756;28;20203;-72
2022/01/13 09:15:13;;;;;;;101.77;37.33;;;;;;;;;;5090023;28;20206;-72
2022/01/13 09:17:43;;;;;;;111.73;35.90;;;;;;;;;;5075618;28;20214;-72
2022/01/13 09:20:13;;;;;;;105.07;37.47;;;;;;;;;;5090176;28;20206;-72
2022/01/13 09:22:41;;;;;;;103.17;36.03;;;;;;;;;;5076164;28;20194;-72
2022/01/13 09:25:10;;;;;;;107.33;35.73;;;;;;;;;;5075102;28;20608;-72
2022/01/13 09:27:40;;;;;;;104.27;36.23;;;;;;;;;;5075126;28;20697;-73
2022/01/13 09:30:09;;;;;;;102.00;36.97;;;;;;;;;;5090149;28;20194;-73
2022/01/13 09:32:38;;;;;;;106.40;37.00;;;;;;;;;;5093479;28;20261;-72
2022/01/13 09:35:07;;;;;;;104.53;36.23;;;;;;;;;;5088465;28;20200;-72
2022/01/13 09:37:37;;;;;;;102.40;34.10;;;;;;;;;;5075249;28;20270;-72
2022/01/13 09:40:07;;;;;;;96.03;34.83;;;;;;;;;;5088543;28;20207;-71
2022/01/13 09:42:36;;;;;;;92.60;35.80;;;;;;;;;;5093715;28;20199;-72
2022/01/13 09:45:06;;;;;;;90.97;33.50;;;;;;;;;;5074585;28;20211;-73
2022/01/13 09:47:35;;;;;;;91.40;33.23;;;;;;;;;;5074732;28;20694;-73
2022/01/13 09:50:09;;;;;;;91.53;34.27;;;;;;;;;;5081564;28;20205;-71
2022/01/13 09:52:39;;;;;;;90.30;32.70;;;;;;;;;;5084891;28;20258;-72
2022/01/13 09:55:09;;;;;;;97.83;34.63;;;;;;;;;;5075044;28;20193;-73
2022/01/13 09:57:37;;;;;;;105.87;35.07;;;;;;;;;;5080711;28;20213;-71
2022/01/13 10:00:06;;;;;;;97.63;34.60;;;;;;;;;;5094685;28;20689;-71
2022/01/13 10:02:35;;;;;;;95.77;34.50;;;;;;;;;;5092905;28;20196;-71
2022/01/13 10:05:04;;;;;;;85.93;31.60;;;;;;;;;;5094392;28;20232;-72
2022/01/13 10:07:33;;;;;;;92.47;32.97;;;;;;;;;;5078701;28;20269;-71
2022/01/13 10:10:24;;;;;;;93.50;33.70;;;;;;;;;;5053302;28;20211;-72
2022/01/13 10:13:01;;;;;;;90.57;33.87;;;;;;;;;;5063220;28;20196;-71
2022/01/13 10:18:36;;;;;;;81.73;31.80;;;;;;;;;;5084628;28;20695;-71
2022/01/13 10:21:06;;;;;;;84.17;33.07;;;;;;;;;;5094462;28;20720;-71
2022/01/13 10:23:34;;;;;;;85.53;32.90;;;;;;;;;;5080085;28;20244;-72
2022/01/13 10:26:12;;;;;;;86.83;33.83;;;;;;;;;;5073843;28;20203;-72
2022/01/13 10:28:41;;;;;;;90.67;32.83;;;;;;;;;;5093112;28;20233;-72
2022/01/13 10:31:09;;;;;;;84.30;32.13;;;;;;;;;;5079822;28;20204;-71
2022/01/13 10:33:38;;;;;;;78.97;33.33;;;;;;;;;;5073592;28;20242;-72
2022/01/13 10:36:08;;;;;;;78.97;30.47;;;;;;;;;;5074107;28;20206;-72
2022/01/13 10:38:50;;;;;;;78.70;32.70;;;;;;;;;;5073703;28;20229;-72
2022/01/13 10:41:37;;;;;;;80.53;31.67;;;;;;;;;;5089327;28;20229;-72
2022/01/13 10:44:15;;;;;;;82.60;31.43;;;;;;;;;;5089767;28;20204;-73
2022/01/13 10:46:57;;;;;;;85.73;32.10;;;;;;;;;;5093999;28;20211;-71
2022/01/13 10:49:32;;;;;;;80.17;31.70;;;;;;;;;;5083878;28;20678;-73
2022/01/13 10:52:23;;;;;;;87.13;32.70;;;;;;;;;;5073493;28;20203;-71
2022/01/13 10:54:53;;;;;;;86.50;31.60;;;;;;;;;;5080042;28;20590;-72
2022/01/13 10:57:24;;;;;;;74.90;30.90;;;;;;;;;;5073796;28;20236;-72
2022/01/13 10:59:53;;;;;;;87.73;32.43;;;;;;;;;;5075013;28;20209;-73
2022/01/13 11:02:22;;;;;;;93.00;34.80;;;;;;;;;;5084248;28;20204;-72
2022/01/13 11:04:51;;;;;;;88.63;33.53;;;;;;;;;;5091190;28;20207;-72
2022/01/13 11:07:21;;;;;;;89.60;34.13;;;;;;;;;;5084339;28;20228;-72
2022/01/13 11:09:53;;;;;;;81.70;33.43;;;;;;;;;;5072784;28;20226;-72
2022/01/13 11:12:35;;;;;;;87.80;33.47;;;;;;;;;;5080718;28;20656;-72
2022/01/13 11:15:05;;;;;;;85.17;32.30;;;;;;;;;;5073250;28;20212;-73
2022/01/13 11:17:36;;;;;;;79.70;32.43;;;;;;;;;;5073425;28;20338;-71
2022/01/13 11:20:05;;;;;;;81.97;33.27;;;;;;;;;;5074895;28;20235;-72
2022/01/13 11:22:35;;;;;;;80.27;33.57;;;;;;;;;;5074030;28;20217;-73
2022/01/13 11:25:04;;;;;;;82.40;32.80;;;;;;;;;;5072545;28;20572;-71
2022/01/13 11:27:33;;;;;;;84.17;33.70;;;;;;;;;;5073177;28;20749;-71
2022/01/13 11:30:02;;;;;;;81.30;32.60;;;;;;;;;;5073423;28;20688;-72
2022/01/13 11:32:30;;;;;;;82.13;33.43;;;;;;;;;;5073164;28;20258;-72
2022/01/13 11:34:59;;;;;;;87.43;34.77;;;;;;;;;;5079789;28;20645;-72
2022/01/13 11:37:28;;;;;;;85.57;33.27;;;;;;;;;;5052992;28;20283;-71
2022/01/13 11:39:57;;;;;;;85.33;34.53;;;;;;;;;;5072564;28;20203;-72
2022/01/13 11:42:47;;;;;;;86.97;34.50;;;;;;;;;;5074039;28;20301;-72
2022/01/13 11:45:17;;;;;;;88.40;34.37;;;;;;;;;;5080519;28;20199;-71
2022/01/13 11:47:46;;;;;;;87.23;35.13;;;;;;;;;;5073146;28;20225;-72
2022/01/13 11:50:18;;;;;;;93.23;35.63;;;;;;;;;;5072631;28;20745;-72
2022/01/13 11:52:52;;;;;;;92.87;36.03;;;;;;;;;;5073502;28;20211;-72
2022/01/13 11:55:21;;;;;;;97.13;36.47;;;;;;;;;;5072230;28;20202;-72
2022/01/13 11:58:15;;;;;;;96.97;36.13;;;;;;;;;;5076782;28;20274;-72
2022/01/13 12:00:44;;;;;;;86.40;34.33;;;;;;;;;;5072796;28;20261;-71
2022/01/13 12:03:23;;;;;;;84.73;35.10;;;;;;;;;;5073210;28;20211;-72
2022/01/13 12:05:51;;;;;;;84.77;34.30;;;;;;;;;;5072802;28;20673;-72
2022/01/13 12:08:36;;;;;;;85.23;33.87;;;;;;;;;;5072942;28;20221;-72
2022/01/13 12:11:05;;;;;;;94.77;36.63;;;;;;;;;;5071769;28;20235;-73
2022/01/13 12:13:46;;;;;;;83.03;34.77;;;;;;;;;;5086125;28;20608;-72
2022/01/13 12:16:15;;;;;;;89.47;34.00;;;;;;;;;;5072288;28;20193;-71
2022/01/13 12:19:00;;;;;;;79.73;33.60;;;;;;;;;;5071063;28;20227;-73
2022/01/13 12:21:31;;;;;;;92.30;35.27;;;;;;;;;;5073103;28;20197;-71
2022/01/13 12:24:00;;;;;;;82.73;34.47;;;;;;;;;;5072992;28;20251;-72
2022/01/13 12:26:48;;;;;;;87.17;35.20;;;;;;;;;;5072902;28;20249;-73
2022/01/13 12:29:19;;;;;;;87.57;33.60;;;;;;;;;;5052637;28;20280;-72
2022/01/13 12:31:56;;;;;;;81.37;33.93;;;;;;;;;;5060229;28;20254;-72
2022/01/13 12:34:39;;;;;;;81.20;35.47;;;;;;;;;;5075256;28;20676;-72
2022/01/13 12:37:38;;;;;;;87.27;35.23;;;;;;;;;;5074380;28;20230;-72
2022/01/13 12:40:14;;;;;;;83.77;34.43;;;;;;;;;;5052494;28;20206;-72
2022/01/13 12:42:52;;;;;;;88.83;35.23;;;;;;;;;;5076043;28;20653;-71
2022/01/13 12:45:29;;;;;;;87.33;35.03;;;;;;;;;;5079669;28;20247;-73
2022/01/13 12:47:59;;;;;;;89.30;34.10;;;;;;;;;;5085005;28;20214;-72
2022/01/13 12:50:29;;;;;;;93.30;36.27;;;;;;;;;;5082884;28;20745;-73
2022/01/13 12:52:59;;;;;;;93.47;36.33;;;;;;;;;;5096354;28;20200;-73
2022/01/13 12:55:27;;;;;;;88.90;36.60;;;;;;;;;;5089222;28;20244;-72
2022/01/13 12:57:56;;;;;;;95.50;36.47;;;;;;;;;;5075916;28;20615;-72
2022/01/13 13:00:45;;;;;;;85.83;35.00;;;;;;;;;;5084718;28;20721;-73
2022/01/13 13:03:13;;;;;;;99.07;36.03;;;;;;;;;;5096440;28;20201;-73
2022/01/13 13:05:46;;;;;;;89.50;35.47;;;;;;;;;;5090678;28;20637;-72
2022/01/13 13:08:16;;;;;;;91.47;36.20;;;;;;;;;;5082742;28;20700;-72
2022/01/13 13:10:46;;;;;;;90.77;36.20;;;;;;;;;;5093649;28;20282;-72
2022/01/13 13:13:15;;;;;;;90.30;36.30;;;;;;;;;;5096025;28;20659;-72
2022/01/13 13:15:52;;;;;;;85.27;34.80;;;;;;;;;;5095361;28;20205;-72
2022/01/13 13:18:21;;;;;;;81.20;33.83;;;;;;;;;;5087105;28;20211;-72
2022/01/13 13:20:50;;;;;;;94.43;36.60;;;;;;;;;;5095860;28;20204;-71
2022/01/13 13:23:22;;;;;;;92.63;35.03;;;;;;;;;;5091648;28;20677;-73
2022/01/13 13:25:52;;;;;;;84.30;35.30;;;;;;;;;;5075392;28;20205;-72
2022/01/13 13:28:23;;;;;;;86.37;35.17;;;;;;;;;;5077992;28;20216;-73
2022/01/13 13:30:53;;;;;;;87.87;34.10;;;;;;;;;;5095663;28;20277;-74
2022/01/13 13:33:43;;;;;;;86.87;33.20;;;;;;;;;;5083067;28;20234;-73
2022/01/13 13:36:13;;;;;;;81.53;33.47;;;;;;;;;;5074970;28;20205;-72
2022/01/13 13:38:53;;;;;;;80.83;34.27;;;;;;;;;;5074885;28;20323;-72
2022/01/13 13:41:23;;;;;;;81.00;31.53;;;;;;;;;;5075089;28;20213;-71
2022/01/13 13:44:13;;;;;;;84.93;33.73;;;;;;;;;;5075635;28;20224;-72
2022/01/13 13:46:48;;;;;;;84.83;34.87;;;;;;;;;;5078395;28;20197;-72
2022/01/13 13:49:16;;;;;;;91.60;34.40;;;;;;;;;;5080122;28;20615;-72
2022/01/13 13:51:45;;;;;;;76.20;32.93;;;;;;;;;;5076323;28;20221;-72
2022/01/13 13:54:15;;;;;;;87.73;33.63;;;;;;;;;;5084204;28;20207;-73
2022/01/13 13:56:48;;;;;;;88.27;35.57;;;;;;;;;;5072947;28;20251;-71
2022/01/13 13:59:19;;;;;;;82.80;33.27;;;;;;;;;;5065029;28;20201;-71
2022/01/13 14:02:03;;;;;;;85.70;33.53;;;;;;;;;;5088014;28;20206;-72
2022/01/13 14:04:33;;;;;;;90.70;35.10;;;;;;;;;;5070942;28;20199;-72
2022/01/13 14:07:02;;;;;;;86.07;32.70;;;;;;;;;;5074236;28;20702;-73
2022/01/13 14:09:37;;;;;;;74.50;32.43;;;;;;;;;;5073950;28;20219;-72
2022/01/13 14:12:07;;;;;;;78.87;30.73;;;;;;;;;;5062826;28;20209;-71
2022/01/13 14:14:39;;;;;;;85.70;33.53;;;;;;;;;;5072891;28;20212;-72
2022/01/13 14:17:11;;;;;;;83.23;33.90;;;;;;;;;;5073003;28;20294;-74
2022/01/13 14:20:03;;;;;;;82.20;32.57;;;;;;;;;;5071931;28;20212;-72
2022/01/13 14:22:32;;;;;;;77.07;29.97;;;;;;;;;;5073306;28;20196;-73
2022/01/13 14:25:01;;;;;;;82.90;31.20;;;;;;;;;;5069383;28;20205;-73
2022/01/13 14:27:29;;;;;;;79.17;30.53;;;;;;;;;;5064388;28;20231;-72
2022/01/13 14:29:58;;;;;;;71.93;30.27;;;;;;;;;;5074222;28;20563;-72
2022/01/13 14:32:28;;;;;;;75.45;30.10;;;;;;;;;;4720060;28;9999642;-72
2022/01/13 14:34:58;;;;;;;75.00;30.27;;;;;;;;;;5070270;28;20218;-72
2022/01/13 14:37:27;;;;;;;76.00;29.53;;;;;;;;;;5051413;28;20224;-72
2022/01/13 14:40:06;;;;;;;75.23;29.57;;;;;;;;;;5068853;28;20203;-72
2022/01/13 14:42:37;;;;;;;74.23;30.93;;;;;;;;;;5082136;28;20251;-71
2022/01/13 14:45:15;;;;;;;84.03;31.70;;;;;;;;;;5090725;28;20218;-74
2022/01/13 14:47:45;;;;;;;75.80;30.60;;;;;;;;;;5090490;28;20221;-72
2022/01/13 14:50:14;;;;;;;84.03;32.27;;;;;;;;;;5078382;28;20208;-74
2022/01/13 14:52:46;;;;;;;81.13;32.27;;;;;;;;;;5080115;28;20568;-72